Time;durP1;ratioP1;P1;durP2;ratioP2;P2;SDS_P1;SDS_P2;PMS_P1;PMS_P2;Temp;Humidity;BMP_temperature;BMP_pressure;BME280_temperature;BME280_humidity;BME280_pressure;Samples;Min_cycle;Max_cycle;Signal;HPM_P1;HPM_P2
2023/10/20 00:02:25;;;;;;;7.15;5.10;;;;;;;;;;6313675;28;20048;-62
2023/10/20 00:05:27;;;;;;;6.22;5.25;;;;;;;;;;6312794;28;20047;-61
2023/10/20 00:08:29;;;;;;;7.97;5.57;;;;;;;;;;6322468;28;20032;-61
2023/10/20 00:11:32;;;;;;;7.93;5.45;;;;;;;;;;6320176;28;20078;-61
2023/10/20 00:14:34;;;;;;;7.20;5.43;;;;;;;;;;6315268;28;20040;-61
2023/10/20 00:17:36;;;;;;;8.80;5.28;;;;;;;;;;6317287;28;20517;-61
2023/10/20 00:20:39;;;;;;;7.93;5.65;;;;;;;;;;6314522;28;20048;-61
2023/10/20 00:23:41;;;;;;;11.10;10.00;;;;;;;;;;6312285;28;20059;-61
2023/10/20 00:26:43;;;;;;;8.55;5.93;;;;;;;;;;6313223;28;20415;-61
2023/10/20 00:29:45;;;;;;;7.65;5.78;;;;;;;;;;6315398;28;20537;-61
2023/10/20 00:32:47;;;;;;;10.05;6.18;;;;;;;;;;6319761;28;20039;-61
2023/10/20 00:35:50;;;;;;;8.93;6.95;;;;;;;;;;6315126;28;20063;-61
2023/10/20 00:38:52;;;;;;;8.93;6.35;;;;;;;;;;6311995;28;20055;-61
2023/10/20 00:41:54;;;;;;;7.22;6.28;;;;;;;;;;6317011;28;20036;-62
2023/10/20 00:44:56;;;;;;;9.18;6.25;;;;;;;;;;6315765;28;20046;-62
2023/10/20 00:48:00;;;;;;;11.88;6.65;;;;;;;;;;6308300;28;20159;-61
2023/10/20 00:51:05;;;;;;;13.35;9.70;;;;;;;;;;6313168;28;20584;-61
2023/10/20 00:54:13;;;;;;;9.68;7.18;;;;;;;;;;6308648;28;20108;-61
2023/10/20 00:57:16;;;;;;;13.73;8.10;;;;;;;;;;6314666;28;20536;-61
2023/10/20 01:00:18;;;;;;;9.93;6.50;;;;;;;;;;6317501;28;20048;-60
2023/10/20 01:03:20;;;;;;;9.77;7.07;;;;;;;;;;6325222;28;20136;-61
2023/10/20 01:06:22;;;;;;;11.65;7.05;;;;;;;;;;6320152;28;20044;-61
2023/10/20 01:09:25;;;;;;;11.45;8.90;;;;;;;;;;6313445;28;20040;-61
2023/10/20 01:12:29;;;;;;;9.93;6.72;;;;;;;;;;6312762;28;20051;-60
2023/10/20 01:15:32;;;;;;;13.38;6.78;;;;;;;;;;6308921;28;20090;-61
2023/10/20 01:18:34;;;;;;;9.13;6.50;;;;;;;;;;6300804;28;20075;-61
2023/10/20 01:21:36;;;;;;;10.05;6.88;;;;;;;;;;6308757;28;20055;-61
2023/10/20 01:24:38;;;;;;;8.88;6.43;;;;;;;;;;6343518;27;20059;-61
2023/10/20 01:27:40;;;;;;;8.68;5.80;;;;;;;;;;6316617;28;20075;-61
2023/10/20 01:30:42;;;;;;;10.63;6.88;;;;;;;;;;6309992;28;20060;-61
2023/10/20 01:33:44;;;;;;;10.63;6.10;;;;;;;;;;6312259;28;20048;-61
2023/10/20 01:36:46;;;;;;;11.63;7.53;;;;;;;;;;6329093;28;20055;-61
2023/10/20 01:39:50;;;;;;;12.13;7.35;;;;;;;;;;6315792;28;20077;-61
2023/10/20 01:42:52;;;;;;;10.02;6.72;;;;;;;;;;6310774;28;20368;-61
2023/10/20 01:45:54;;;;;;;8.80;7.32;;;;;;;;;;6306522;28;20047;-61
2023/10/20 01:48:57;;;;;;;10.43;6.65;;;;;;;;;;6314158;28;20055;-61
2023/10/20 01:52:00;;;;;;;8.27;6.20;;;;;;;;;;6309215;28;20047;-60
2023/10/20 01:55:02;;;;;;;12.15;7.35;;;;;;;;;;6316972;28;20047;-61
2023/10/20 01:58:04;;;;;;;9.38;6.45;;;;;;;;;;6305831;28;20036;-60
2023/10/20 02:01:08;;;;;;;8.68;6.18;;;;;;;;;;6312719;28;20067;-60
2023/10/20 02:04:10;;;;;;;8.18;5.65;;;;;;;;;;6319005;28;20062;-61
2023/10/20 02:07:13;;;;;;;14.77;6.88;;;;;;;;;;6312535;28;20051;-61
2023/10/20 02:10:15;;;;;;;9.90;7.05;;;;;;;;;;6318909;28;20328;-61
2023/10/20 02:13:17;;;;;;;7.97;6.13;;;;;;;;;;6316185;28;20048;-61
2023/10/20 02:16:19;;;;;;;9.00;8.10;;;;;;;;;;6296035;28;20577;-61
2023/10/20 02:19:21;;;;;;;9.00;6.10;;;;;;;;;;6312209;28;20513;-61
2023/10/20 02:22:25;;;;;;;10.05;7.32;;;;;;;;;;6328253;28;20063;-61
2023/10/20 02:25:27;;;;;;;9.13;6.10;;;;;;;;;;6317462;28;20447;-61
2023/10/20 02:28:29;;;;;;;11.70;8.32;;;;;;;;;;6323053;28;20659;-61
2023/10/20 02:31:31;;;;;;;12.27;7.88;;;;;;;;;;6320777;28;20058;-61
2023/10/20 02:34:33;;;;;;;12.00;7.18;;;;;;;;;;6320482;28;20541;-62
2023/10/20 02:37:35;;;;;;;9.55;6.55;;;;;;;;;;6313962;28;20446;-61
2023/10/20 02:40:37;;;;;;;8.90;7.25;;;;;;;;;;6315614;28;20561;-60
2023/10/20 02:43:39;;;;;;;9.45;5.95;;;;;;;;;;6322932;28;20047;-60
2023/10/20 02:46:41;;;;;;;8.30;6.18;;;;;;;;;;6318253;28;20040;-60
2023/10/20 02:49:43;;;;;;;11.20;7.03;;;;;;;;;;6315046;28;20047;-61
2023/10/20 02:52:46;;;;;;;8.43;5.97;;;;;;;;;;6311330;28;20048;-60
2023/10/20 02:55:48;;;;;;;8.63;6.50;;;;;;;;;;6319712;28;20557;-61
2023/10/20 02:58:51;;;;;;;8.75;6.18;;;;;;;;;;6315998;28;20039;-61
2023/10/20 03:01:55;;;;;;;10.77;8.98;;;;;;;;;;6310754;28;20106;-60
2023/10/20 03:04:58;;;;;;;9.45;6.50;;;;;;;;;;6319526;28;20048;-65
2023/10/20 03:08:01;;;;;;;9.82;6.45;;;;;;;;;;6311364;28;20804;-60
2023/10/20 03:11:07;;;;;;;12.30;6.82;;;;;;;;;;6314115;28;20473;-61
2023/10/20 03:14:09;;;;;;;8.85;6.28;;;;;;;;;;6319185;28;20047;-60
2023/10/20 03:17:12;;;;;;;10.20;7.53;;;;;;;;;;6320198;28;20093;-61
2023/10/20 03:20:17;;;;;;;9.50;6.13;;;;;;;;;;6315767;28;20660;-61
2023/10/20 03:23:21;;;;;;;10.57;8.68;;;;;;;;;;6317968;28;20059;-60
2023/10/20 03:26:23;;;;;;;11.07;7.47;;;;;;;;;;6318427;27;20197;-59
2023/10/20 03:29:25;;;;;;;9.70;8.70;;;;;;;;;;6316750;28;20031;-59
2023/10/20 03:32:27;;;;;;;12.60;9.48;;;;;;;;;;6327176;28;20048;-61
2023/10/20 03:35:29;;;;;;;10.35;7.63;;;;;;;;;;6319146;28;20044;-60
2023/10/20 03:38:32;;;;;;;12.88;10.52;;;;;;;;;;6310559;28;20047;-60
2023/10/20 03:41:35;;;;;;;12.07;10.00;;;;;;;;;;6316751;28;20047;-60
2023/10/20 03:44:37;;;;;;;10.55;7.47;;;;;;;;;;6312253;28;20099;-60
2023/10/20 03:47:39;;;;;;;9.15;6.15;;;;;;;;;;6314861;28;20524;-60
2023/10/20 03:50:46;;;;;;;15.88;11.07;;;;;;;;;;6316734;28;20031;-60
2023/10/20 03:53:52;;;;;;;8.73;6.97;;;;;;;;;;6315962;28;20522;-60
2023/10/20 03:56:56;;;;;;;12.50;7.95;;;;;;;;;;6317941;28;20071;-61
2023/10/20 03:59:58;;;;;;;9.02;7.03;;;;;;;;;;6337032;27;20051;-61
2023/10/20 04:03:00;;;;;;;12.32;7.90;;;;;;;;;;6316249;28;20082;-61
2023/10/20 04:06:06;;;;;;;12.55;8.82;;;;;;;;;;6318939;28;20048;-60
2023/10/20 04:09:09;;;;;;;10.57;8.15;;;;;;;;;;6312087;28;20058;-61
2023/10/20 04:12:11;;;;;;;10.57;7.88;;;;;;;;;;6310205;28;20052;-61
2023/10/20 04:15:19;;;;;;;11.13;7.50;;;;;;;;;;6309631;28;20040;-62
2023/10/20 04:18:22;;;;;;;12.25;7.10;;;;;;;;;;6302166;28;20040;-61
2023/10/20 04:21:26;;;;;;;12.95;8.68;;;;;;;;;;6315582;28;20051;-62
2023/10/20 04:24:28;;;;;;;10.13;8.15;;;;;;;;;;6309154;28;20042;-61
2023/10/20 04:51:08;;;;;;;12.10;9.43;;;;;;;;;;6313933;28;20052;-65
2023/10/20 04:54:17;;;;;;;14.63;9.73;;;;;;;;;;6313208;28;20052;-61
2023/10/20 05:00:37;;;;;;;22.58;15.77;;;;;;;;;;6308363;28;20059;-61
2023/10/20 05:03:53;;;;;;;11.48;6.75;;;;;;;;;;6316053;28;20044;-61
2023/10/20 05:07:05;;;;;;;12.60;8.43;;;;;;;;;;6311398;28;20040;-61
2023/10/20 05:10:09;;;;;;;10.13;6.18;;;;;;;;;;6307587;28;20733;-62
2023/10/20 05:13:13;;;;;;;14.70;6.38;;;;;;;;;;6311880;28;20442;-61
2023/10/20 05:16:16;;;;;;;10.52;7.03;;;;;;;;;;6313233;28;20044;-64
2023/10/20 05:19:18;;;;;;;13.85;8.90;;;;;;;;;;6306303;28;20090;-62
2023/10/20 05:22:20;;;;;;;10.50;7.15;;;;;;;;;;6309857;28;20106;-62
2023/10/20 05:25:22;;;;;;;14.10;8.20;;;;;;;;;;6300133;28;20143;-63
2023/10/20 05:28:24;;;;;;;12.05;7.75;;;;;;;;;;6311692;28;20059;-61
2023/10/20 05:31:26;;;;;;;11.65;8.27;;;;;;;;;;6317209;28;20044;-62
2023/10/20 05:34:29;;;;;;;16.30;9.75;;;;;;;;;;6326798;28;20549;-62
2023/10/20 05:56:30;;;;;;;15.63;9.57;;;;;;;;;;6351893;27;20675;-62
2023/10/20 05:59:32;;;;;;;14.23;12.35;;;;;;;;;;6343661;28;20050;-62
2023/10/20 06:02:35;;;;;;;13.18;10.75;;;;;;;;;;6344839;27;20497;-63
2023/10/20 06:05:38;;;;;;;15.57;10.73;;;;;;;;;;6354019;27;20043;-62
2023/10/20 06:08:40;;;;;;;12.35;9.00;;;;;;;;;;6355345;27;20130;-62
2023/10/20 06:11:42;;;;;;;12.30;9.48;;;;;;;;;;6344366;27;20180;-63
2023/10/20 06:14:44;;;;;;;13.75;9.80;;;;;;;;;;6350480;27;20140;-63
2023/10/20 06:17:47;;;;;;;10.45;8.38;;;;;;;;;;6354653;27;20131;-63
2023/10/20 06:20:49;;;;;;;14.70;9.18;;;;;;;;;;6349450;27;20053;-63
2023/10/20 06:23:51;;;;;;;13.60;8.30;;;;;;;;;;6352640;27;20077;-62
2023/10/20 06:26:55;;;;;;;12.90;9.32;;;;;;;;;;6343201;27;20043;-62
2023/10/20 06:30:06;;;;;;;15.77;12.93;;;;;;;;;;6351213;27;20044;-62
2023/10/20 06:36:18;;;;;;;13.18;8.63;;;;;;;;;;6342473;28;20066;-62
2023/10/20 06:39:20;;;;;;;12.32;8.40;;;;;;;;;;6339480;28;20055;-62
2023/10/20 06:42:24;;;;;;;12.50;8.98;;;;;;;;;;6346936;27;20058;-62
2023/10/20 06:45:26;;;;;;;12.35;8.18;;;;;;;;;;6343880;27;20940;-62
2023/10/20 06:48:28;;;;;;;16.73;9.27;;;;;;;;;;6347992;28;20643;-63
2023/10/20 06:51:30;;;;;;;11.25;8.57;;;;;;;;;;6334283;28;20051;-63
2023/10/20 06:54:32;;;;;;;11.75;10.55;;;;;;;;;;6350295;27;20789;-63
2023/10/20 06:57:35;;;;;;;10.75;8.68;;;;;;;;;;6336417;28;20153;-63
2023/10/20 07:00:37;;;;;;;12.98;9.00;;;;;;;;;;6334823;27;20153;-63
2023/10/20 07:03:39;;;;;;;12.30;8.57;;;;;;;;;;6338447;27;20213;-63
2023/10/20 07:06:41;;;;;;;12.68;8.98;;;;;;;;;;6337293;28;20047;-63
2023/10/20 07:09:44;;;;;;;13.60;7.28;;;;;;;;;;6329789;28;20052;-63
2023/10/20 07:12:46;;;;;;;11.32;8.35;;;;;;;;;;6317917;28;20052;-63
2023/10/20 07:15:54;;;;;;;11.75;10.63;;;;;;;;;;6330766;28;20047;-63
2023/10/20 07:18:57;;;;;;;11.48;9.27;;;;;;;;;;6329488;28;20044;-63
2023/10/20 07:22:05;;;;;;;14.32;12.55;;;;;;;;;;6330671;27;20047;-63
2023/10/20 07:25:08;;;;;;;11.60;10.60;;;;;;;;;;6335366;28;20855;-63
2023/10/20 07:28:10;;;;;;;10.68;7.10;;;;;;;;;;6325525;28;20040;-64
2023/10/20 07:31:16;;;;;;;9.30;8.02;;;;;;;;;;6338457;27;20047;-63
2023/10/20 07:34:18;;;;;;;12.25;6.30;;;;;;;;;;6328381;28;20051;-64
2023/10/20 07:37:20;;;;;;;13.77;9.38;;;;;;;;;;6338700;27;20193;-62
2023/10/20 07:40:26;;;;;;;7.90;6.13;;;;;;;;;;6345864;27;20051;-64
2023/10/20 07:43:28;;;;;;;9.63;8.13;;;;;;;;;;6328238;28;20055;-63
2023/10/20 07:46:31;;;;;;;8.75;7.85;;;;;;;;;;6320765;28;20089;-63
2023/10/20 07:49:33;;;;;;;11.52;9.02;;;;;;;;;;6323366;28;20051;-62
2023/10/20 07:52:35;;;;;;;10.18;6.32;;;;;;;;;;6336304;27;20857;-63
2023/10/20 07:55:37;;;;;;;9.40;8.32;;;;;;;;;;6339859;27;20104;-61
2023/10/20 07:58:39;;;;;;;7.55;5.60;;;;;;;;;;6314786;28;20048;-63
2023/10/20 08:01:41;;;;;;;10.98;8.25;;;;;;;;;;6330696;27;20048;-61
2023/10/20 08:04:43;;;;;;;8.90;6.20;;;;;;;;;;6342398;27;20137;-63
2023/10/20 08:07:48;;;;;;;9.13;7.32;;;;;;;;;;6342493;27;20055;-62
2023/10/20 08:10:50;;;;;;;;;;;;;;;;;;6342209;27;20146;-63
2023/10/20 08:13:55;;;;;;;9.05;6.15;;;;;;;;;;6335665;27;20798;-62
2023/10/20 08:16:59;;;;;;;10.68;9.13;;;;;;;;;;6343132;27;20059;-62
2023/10/20 08:20:01;;;;;;;9.43;6.70;;;;;;;;;;6339981;27;20058;-62
2023/10/20 08:23:03;;;;;;;8.95;7.80;;;;;;;;;;6342426;27;20046;-61
2023/10/20 08:26:05;;;;;;;7.80;5.13;;;;;;;;;;6343592;27;20626;-62
2023/10/20 08:29:11;;;;;;;7.20;4.47;;;;;;;;;;6337533;28;20040;-60
2023/10/20 08:32:14;;;;;;;10.18;7.50;;;;;;;;;;6319084;28;20477;-62
2023/10/20 08:35:16;;;;;;;11.60;6.95;;;;;;;;;;6332342;28;20047;-61
2023/10/20 08:38:18;;;;;;;8.20;6.53;;;;;;;;;;6334686;28;20054;-62
2023/10/20 08:41:23;;;;;;;8.32;6.47;;;;;;;;;;6338845;27;20863;-61
2023/10/20 08:44:25;;;;;;;10.15;8.77;;;;;;;;;;6337544;27;20492;-61
2023/10/20 08:47:28;;;;;;;19.00;9.10;;;;;;;;;;6347626;27;20046;-62
2023/10/20 08:50:31;;;;;;;15.75;11.45;;;;;;;;;;6318864;28;20733;-62
2023/10/20 08:53:35;;;;;;;12.35;8.32;;;;;;;;;;6335532;28;20585;-62
2023/10/20 08:56:37;;;;;;;17.42;7.97;;;;;;;;;;6336122;28;20100;-62
2023/10/20 08:59:39;;;;;;;11.95;7.00;;;;;;;;;;6333042;28;20729;-62
2023/10/20 09:02:41;;;;;;;8.88;5.65;;;;;;;;;;6312277;28;20044;-63
2023/10/20 09:05:43;;;;;;;9.98;6.78;;;;;;;;;;6329413;28;20052;-64
2023/10/20 09:08:47;;;;;;;11.57;8.48;;;;;;;;;;6316709;28;20052;-63
2023/10/20 09:11:49;;;;;;;11.98;6.55;;;;;;;;;;6332892;28;20056;-65
2023/10/20 09:14:53;;;;;;;10.85;3.72;;;;;;;;;;6335355;28;20032;-69
2023/10/20 09:17:56;;;;;;;13.93;4.88;;;;;;;;;;6335782;28;20039;-63
2023/10/20 09:21:04;;;;;;;8.43;7.28;;;;;;;;;;6327520;28;20050;-63
2023/10/20 09:24:08;;;;;;;8.98;7.18;;;;;;;;;;6334840;28;20055;-63
2023/10/20 09:27:10;;;;;;;11.77;6.07;;;;;;;;;;6327117;28;20828;-63
2023/10/20 09:30:12;;;;;;;14.10;6.90;;;;;;;;;;6321937;28;20044;-63
2023/10/20 09:33:14;;;;;;;9.90;6.25;;;;;;;;;;6313445;28;20044;-62
2023/10/20 09:36:18;;;;;;;10.35;4.53;;;;;;;;;;6333443;28;20076;-63
2023/10/20 09:39:24;;;;;;;10.60;6.88;;;;;;;;;;6327575;28;20036;-62
2023/10/20 09:42:27;;;;;;;13.85;5.95;;;;;;;;;;6334976;28;20051;-63
2023/10/20 09:45:36;;;;;;;8.80;3.80;;;;;;;;;;6326793;28;20059;-63
2023/10/20 09:48:39;;;;;;;13.40;4.13;;;;;;;;;;6334321;28;20043;-63
2023/10/20 09:51:46;;;;;;;9.25;6.68;;;;;;;;;;6335668;28;20091;-62
2023/10/20 09:54:50;;;;;;;14.07;6.05;;;;;;;;;;6335674;28;20036;-63
2023/10/20 09:57:52;;;;;;;9.70;5.63;;;;;;;;;;6317896;28;20051;-63
2023/10/20 10:00:56;;;;;;;12.70;7.55;;;;;;;;;;6335177;28;20668;-63
2023/10/20 10:04:00;;;;;;;8.55;3.92;;;;;;;;;;6335917;28;20539;-63
2023/10/20 10:07:04;;;;;;;15.50;6.13;;;;;;;;;;6335427;28;20044;-63
2023/10/20 10:10:06;;;;;;;7.32;4.25;;;;;;;;;;6335218;28;20044;-62
2023/10/20 10:13:10;;;;;;;13.77;5.07;;;;;;;;;;6335564;28;20051;-63
2023/10/20 10:16:15;;;;;;;10.50;5.35;;;;;;;;;;6336046;28;20594;-63
2023/10/20 10:19:17;;;;;;;10.50;4.38;;;;;;;;;;6335546;28;20080;-63
2023/10/20 10:22:26;;;;;;;11.75;4.15;;;;;;;;;;6317898;28;20048;-63
2023/10/20 10:25:40;;;;;;;10.30;6.03;;;;;;;;;;6335182;28;20039;-63
2023/10/20 10:28:49;;;;;;;13.70;4.72;;;;;;;;;;6336569;28;20051;-63
2023/10/20 10:31:51;;;;;;;11.70;5.00;;;;;;;;;;6334570;28;20044;-63
2023/10/20 10:35:15;;;;;;;8.13;3.90;;;;;;;;;;6340210;28;20036;-63
2023/10/20 10:38:22;;;;;;;10.18;3.47;;;;;;;;;;6340151;28;20184;-63
2023/10/20 10:41:24;;;;;;;8.05;3.95;;;;;;;;;;6339657;28;20070;-63
2023/10/20 10:44:32;;;;;;;8.93;3.08;;;;;;;;;;6339922;28;20044;-63
2023/10/20 10:47:34;;;;;;;9.48;3.78;;;;;;;;;;6340328;28;20039;-63
2023/10/20 10:50:38;;;;;;;10.43;3.13;;;;;;;;;;6339678;28;20146;-63
2023/10/20 10:53:43;;;;;;;12.05;3.33;;;;;;;;;;6339460;28;20050;-63
2023/10/20 10:56:45;;;;;;;;;;;;;;;;;;6340002;28;20036;-63
2023/10/20 10:59:47;;;;;;;15.10;3.42;;;;;;;;;;6339882;28;19923;-63
2023/10/20 11:02:51;;;;;;;10.18;3.85;;;;;;;;;;6321363;28;20051;-63
2023/10/20 11:05:54;;;;;;;8.93;5.20;;;;;;;;;;6330146;28;20055;-64
2023/10/20 11:08:56;;;;;;;10.55;3.00;;;;;;;;;;6338692;28;20120;-63
2023/10/20 11:11:58;;;;;;;11.15;2.85;;;;;;;;;;6338884;28;20043;-64
2023/10/20 11:15:06;;;;;;;15.38;3.20;;;;;;;;;;6329391;28;20150;-63
2023/10/20 11:18:10;;;;;;;9.70;3.40;;;;;;;;;;6338620;28;20128;-64
2023/10/20 11:21:13;;;;;;;12.18;3.28;;;;;;;;;;6339029;28;20052;-64
2023/10/20 11:24:25;;;;;;;12.02;2.83;;;;;;;;;;6339103;28;20077;-64
2023/10/20 11:27:27;;;;;;;12.40;3.30;;;;;;;;;;6339220;28;20047;-64
2023/10/20 11:30:37;;;;;;;11.10;3.00;;;;;;;;;;6338355;28;20093;-64
2023/10/20 11:33:39;;;;;;;15.18;2.45;;;;;;;;;;6335330;28;20044;-64
2023/10/20 11:36:44;;;;;;;12.98;2.90;;;;;;;;;;6338508;28;20087;-64
2023/10/20 11:39:46;;;;;;;9.45;3.33;;;;;;;;;;6338676;28;20074;-63
2023/10/20 11:42:49;;;;;;;6.97;2.90;;;;;;;;;;6338306;28;20136;-63
2023/10/20 11:45:51;;;;;;;11.13;2.90;;;;;;;;;;6337584;28;20069;-64
2023/10/20 11:48:53;;;;;;;10.63;3.10;;;;;;;;;;6337751;28;20051;-64
2023/10/20 11:51:55;;;;;;;10.75;3.83;;;;;;;;;;6335982;28;20736;-63
2023/10/20 11:55:00;;;;;;;10.40;2.30;;;;;;;;;;6337884;28;20048;-64
2023/10/20 11:58:03;;;;;;;9.93;2.97;;;;;;;;;;6321272;27;20054;-63
2023/10/20 12:01:07;;;;;;;11.18;2.53;;;;;;;;;;6335079;27;20082;-64
2023/10/20 12:04:10;;;;;;;11.90;3.30;;;;;;;;;;6337791;28;20068;-64
2023/10/20 12:07:12;;;;;;;14.43;2.67;;;;;;;;;;6331391;27;20043;-64
2023/10/20 12:10:15;;;;;;;11.23;2.80;;;;;;;;;;6335418;28;20052;-64
2023/10/20 12:13:18;;;;;;;13.77;3.63;;;;;;;;;;6328451;28;20056;-64
2023/10/20 12:16:24;;;;;;;17.55;2.95;;;;;;;;;;6339301;27;20043;-64
2023/10/20 12:19:26;;;;;;;11.38;3.72;;;;;;;;;;6332787;27;20047;-64
2023/10/20 12:22:28;;;;;;;13.15;2.10;;;;;;;;;;6338491;27;20047;-64
2023/10/20 12:25:30;;;;;;;11.07;2.35;;;;;;;;;;6335967;27;20134;-64
2023/10/20 12:28:32;;;;;;;14.85;3.35;;;;;;;;;;6330199;27;20055;-63
2023/10/20 12:31:34;;;;;;;9.90;2.13;;;;;;;;;;6334528;27;20047;-64
2023/10/20 12:34:37;;;;;;;8.23;3.40;;;;;;;;;;6331846;28;20441;-64
2023/10/20 12:37:39;;;;;;;13.07;2.28;;;;;;;;;;6334539;28;20051;-64
2023/10/20 12:40:43;;;;;;;9.45;2.53;;;;;;;;;;6330178;28;20052;-64
2023/10/20 12:43:47;;;;;;;10.15;2.35;;;;;;;;;;6326204;27;20047;-64
2023/10/20 12:46:50;;;;;;;10.00;2.28;;;;;;;;;;6330016;28;20048;-64
2023/10/20 12:49:55;;;;;;;12.07;2.60;;;;;;;;;;6338125;27;20521;-63
2023/10/20 12:53:00;;;;;;;13.18;2.40;;;;;;;;;;6338592;27;20055;-63
2023/10/20 12:56:03;;;;;;;13.60;1.98;;;;;;;;;;6334924;27;20505;-64
2023/10/20 12:59:05;;;;;;;13.75;2.03;;;;;;;;;;6327113;28;20036;-64
2023/10/20 13:02:07;;;;;;;16.50;2.00;;;;;;;;;;6334331;28;20051;-65
2023/10/20 13:05:09;;;;;;;9.90;2.10;;;;;;;;;;6328256;28;20087;-64
2023/10/20 13:08:14;;;;;;;11.15;2.00;;;;;;;;;;6323471;28;20058;-64
2023/10/20 13:11:16;;;;;;;12.88;1.88;;;;;;;;;;6330703;28;20052;-63
2023/10/20 13:14:18;;;;;;;10.43;3.22;;;;;;;;;;6328712;28;20925;-64
2023/10/20 13:17:20;;;;;;;10.00;2.55;;;;;;;;;;6318491;28;20134;-64
2023/10/20 13:20:22;;;;;;;9.65;2.38;;;;;;;;;;6334995;28;20047;-64
2023/10/20 13:23:25;;;;;;;8.38;1.60;;;;;;;;;;6325596;28;20043;-63
2023/10/20 13:26:27;;;;;;;17.17;7.43;;;;;;;;;;6325405;28;20036;-63
2023/10/20 13:29:29;;;;;;;11.93;4.10;;;;;;;;;;6335995;28;20469;-63
2023/10/20 13:32:31;;;;;;;11.68;2.60;;;;;;;;;;6332514;28;20067;-64
2023/10/20 13:35:36;;;;;;;10.65;2.47;;;;;;;;;;6330733;28;20075;-64
2023/10/20 13:38:38;;;;;;;13.82;1.98;;;;;;;;;;6326808;28;20485;-63
2023/10/20 13:41:40;;;;;;;14.68;5.55;;;;;;;;;;6334316;28;20100;-64
2023/10/20 13:44:43;;;;;;;15.15;3.58;;;;;;;;;;6323265;28;20181;-63
2023/10/20 13:47:46;;;;;;;11.00;4.30;;;;;;;;;;6334713;28;20047;-63
2023/10/20 13:50:48;;;;;;;12.98;2.92;;;;;;;;;;6334356;28;20043;-64
2023/10/20 13:53:50;;;;;;;13.35;2.30;;;;;;;;;;6333940;28;20048;-63
2023/10/20 13:56:52;;;;;;;15.95;3.63;;;;;;;;;;6334644;28;20658;-63
2023/10/20 13:59:55;;;;;;;18.33;2.75;;;;;;;;;;6324113;28;20039;-63
2023/10/20 14:02:58;;;;;;;12.75;2.72;;;;;;;;;;6335554;28;20126;-64
2023/10/20 14:06:02;;;;;;;13.98;3.65;;;;;;;;;;6337973;28;20067;-64
2023/10/20 14:09:04;;;;;;;19.83;6.40;;;;;;;;;;6341266;28;20185;-64
2023/10/20 14:12:06;;;;;;;10.65;2.30;;;;;;;;;;6330256;28;20044;-64
2023/10/20 14:15:09;;;;;;;9.07;2.08;;;;;;;;;;6340589;28;20058;-64
2023/10/20 14:18:11;;;;;;;9.40;3.35;;;;;;;;;;6334755;28;20510;-65
2023/10/20 14:21:14;;;;;;;11.48;3.35;;;;;;;;;;6328423;28;20661;-64
2023/10/20 14:24:16;;;;;;;18.23;3.33;;;;;;;;;;6320215;27;20101;-64
2023/10/20 14:27:18;;;;;;;14.00;3.63;;;;;;;;;;6337614;27;20078;-65
2023/10/20 14:30:20;;;;;;;16.27;3.80;;;;;;;;;;6336781;28;20427;-64
2023/10/20 14:33:23;;;;;;;12.98;3.53;;;;;;;;;;6335810;28;20050;-64
2023/10/20 14:36:25;;;;;;;14.10;2.67;;;;;;;;;;6339766;27;20075;-64
2023/10/20 14:39:27;;;;;;;12.30;4.78;;;;;;;;;;6345149;27;20870;-64
2023/10/20 14:42:29;;;;;;;20.20;4.40;;;;;;;;;;6329404;28;20047;-64
2023/10/20 14:45:31;;;;;;;13.63;2.72;;;;;;;;;;6335556;28;20184;-63
2023/10/20 14:48:33;;;;;;;12.68;2.25;;;;;;;;;;6331609;28;20764;-63
2023/10/20 14:51:36;;;;;;;12.57;2.20;;;;;;;;;;6332739;28;20577;-63
2023/10/20 14:54:39;;;;;;;18.90;3.95;;;;;;;;;;6337946;28;20050;-64
2023/10/20 14:57:41;;;;;;;11.55;2.33;;;;;;;;;;6328601;28;20047;-64
2023/10/20 15:00:49;;;;;;;9.95;3.78;;;;;;;;;;6334967;28;20434;-64
2023/10/20 15:03:52;;;;;;;10.95;2.63;;;;;;;;;;6338261;28;20546;-64
2023/10/20 15:06:55;;;;;;;16.10;3.00;;;;;;;;;;6323833;28;20044;-63
2023/10/20 15:09:59;;;;;;;16.00;3.42;;;;;;;;;;6325182;28;20547;-65
2023/10/20 15:13:03;;;;;;;12.60;2.63;;;;;;;;;;6335847;28;20055;-64
2023/10/20 15:16:05;;;;;;;8.98;2.53;;;;;;;;;;6339151;28;20048;-64
2023/10/20 15:19:09;;;;;;;13.18;1.95;;;;;;;;;;6339294;28;20074;-64
2023/10/20 15:22:11;;;;;;;9.40;1.85;;;;;;;;;;6339412;28;20833;-64
2023/10/20 15:25:13;;;;;;;7.28;1.88;;;;;;;;;;6339203;28;20047;-65
2023/10/20 15:28:15;;;;;;;9.20;2.47;;;;;;;;;;6339343;28;20039;-64
2023/10/20 15:31:17;;;;;;;10.57;2.17;;;;;;;;;;6338172;28;20779;-64
2023/10/20 15:34:19;;;;;;;15.77;3.03;;;;;;;;;;6337413;28;20726;-64
2023/10/20 15:37:22;;;;;;;7.70;3.33;;;;;;;;;;6338623;28;20092;-64
2023/10/20 15:40:24;;;;;;;9.90;2.15;;;;;;;;;;6337019;28;20058;-64
2023/10/20 15:43:27;;;;;;;8.38;1.63;;;;;;;;;;6330354;28;20541;-63
2023/10/20 15:46:29;;;;;;;10.82;3.60;;;;;;;;;;6324977;28;20040;-63
2023/10/20 15:49:31;;;;;;;12.32;2.63;;;;;;;;;;6336994;28;20043;-63
2023/10/20 15:52:34;;;;;;;10.05;2.22;;;;;;;;;;6334126;28;20047;-64
2023/10/20 15:55:41;;;;;;;10.80;2.28;;;;;;;;;;6337842;28;20055;-64
2023/10/20 15:58:43;;;;;;;7.05;3.17;;;;;;;;;;6337272;28;20055;-64
2023/10/20 16:01:45;;;;;;;10.25;3.53;;;;;;;;;;6335863;28;20125;-64
2023/10/20 16:04:51;;;;;;;8.00;2.80;;;;;;;;;;6336050;28;20055;-64
2023/10/20 16:07:53;;;;;;;10.68;2.20;;;;;;;;;;6335880;28;20767;-64
2023/10/20 16:10:56;;;;;;;14.73;2.95;;;;;;;;;;6330693;28;20067;-64
2023/10/20 16:14:00;;;;;;;13.50;4.63;;;;;;;;;;6337713;27;20077;-64
2023/10/20 16:17:02;;;;;;;10.25;4.13;;;;;;;;;;6335725;28;20044;-64
2023/10/20 16:20:04;;;;;;;14.88;3.08;;;;;;;;;;6333508;28;20126;-64
2023/10/20 16:23:07;;;;;;;7.28;2.65;;;;;;;;;;6337448;28;20437;-64
2023/10/20 16:26:11;;;;;;;5.95;1.77;;;;;;;;;;6336024;28;20573;-64
2023/10/20 16:29:13;;;;;;;13.93;4.20;;;;;;;;;;6330575;28;20047;-65
2023/10/20 16:32:15;;;;;;;11.48;2.90;;;;;;;;;;6331703;28;20068;-64
2023/10/20 16:35:18;;;;;;;9.90;3.80;;;;;;;;;;6333364;28;20699;-65
2023/10/20 16:38:21;;;;;;;13.68;3.65;;;;;;;;;;6336069;28;20043;-63
2023/10/20 16:41:23;;;;;;;10.02;2.55;;;;;;;;;;6332151;28;20463;-63
2023/10/20 16:44:27;;;;;;;12.30;5.95;;;;;;;;;;6332938;28;20086;-63
2023/10/20 16:47:29;;;;;;;14.57;4.50;;;;;;;;;;6333140;28;20044;-64
2023/10/20 16:50:31;;;;;;;14.93;5.80;;;;;;;;;;6304829;28;20040;-65
2023/10/20 16:53:34;;;;;;;14.85;5.70;;;;;;;;;;6332811;28;20043;-64
2023/10/20 16:56:37;;;;;;;15.63;6.63;;;;;;;;;;6332924;27;20051;-63
2023/10/20 16:59:39;;;;;;;23.23;11.65;;;;;;;;;;6332691;28;20090;-64
2023/10/20 17:02:41;;;;;;;18.27;7.85;;;;;;;;;;6334368;28;20043;-63
2023/10/20 17:05:44;;;;;;;13.50;5.88;;;;;;;;;;6334605;28;20044;-64
2023/10/20 17:08:46;;;;;;;12.13;4.13;;;;;;;;;;6329096;27;20842;-63
2023/10/20 17:11:48;;;;;;;12.38;4.32;;;;;;;;;;6332966;27;20099;-63
2023/10/20 17:14:50;;;;;;;15.35;4.53;;;;;;;;;;6331703;28;20548;-63
2023/10/20 17:17:52;;;;;;;9.60;3.60;;;;;;;;;;6329250;28;20043;-64
2023/10/20 17:21:00;;;;;;;8.93;4.57;;;;;;;;;;6332805;28;20699;-63
2023/10/20 17:24:02;;;;;;;7.88;2.13;;;;;;;;;;6333484;28;20047;-63
2023/10/20 17:27:06;;;;;;;11.57;2.00;;;;;;;;;;6331440;28;20043;-62
2023/10/20 17:30:09;;;;;;;14.02;2.78;;;;;;;;;;6328265;28;20054;-63
2023/10/20 17:33:11;;;;;;;11.27;1.88;;;;;;;;;;6334012;28;20040;-63
2023/10/20 17:36:14;;;;;;;6.72;3.65;;;;;;;;;;6333902;28;20051;-63
2023/10/20 17:39:18;;;;;;;19.17;4.50;;;;;;;;;;6333776;28;20077;-62
2023/10/20 17:42:22;;;;;;;14.13;3.92;;;;;;;;;;6318922;28;20533;-64
2023/10/20 17:45:26;;;;;;;9.48;2.80;;;;;;;;;;6333651;28;20043;-65
2023/10/20 17:48:28;;;;;;;16.13;4.55;;;;;;;;;;6330222;28;20075;-65
2023/10/20 17:51:31;;;;;;;10.50;4.82;;;;;;;;;;6333508;28;20047;-65
2023/10/20 17:54:33;;;;;;;11.93;5.18;;;;;;;;;;6333816;28;20055;-63
2023/10/20 17:57:35;;;;;;;9.35;5.63;;;;;;;;;;6335342;28;20150;-65
2023/10/20 18:00:39;;;;;;;7.32;2.35;;;;;;;;;;6334958;28;20044;-65
2023/10/20 18:03:42;;;;;;;7.90;3.47;;;;;;;;;;6334983;28;20044;-65
2023/10/20 18:06:45;;;;;;;10.88;3.60;;;;;;;;;;6331894;28;20039;-65
2023/10/20 18:09:47;;;;;;;8.02;1.83;;;;;;;;;;6329983;28;20126;-63
2023/10/20 18:12:49;;;;;;;9.35;4.47;;;;;;;;;;6309675;28;20442;-64
2023/10/20 18:15:52;;;;;;;8.75;1.90;;;;;;;;;;6334838;28;20107;-65
2023/10/20 18:18:54;;;;;;;11.02;2.45;;;;;;;;;;6334828;28;20048;-64
2023/10/20 18:21:56;;;;;;;6.80;2.15;;;;;;;;;;6334954;28;20450;-64
2023/10/20 18:24:58;;;;;;;15.98;5.50;;;;;;;;;;6335234;28;20796;-64
2023/10/20 18:28:00;;;;;;;9.63;4.20;;;;;;;;;;6335736;28;20454;-64
2023/10/20 18:31:15;;;;;;;11.73;4.18;;;;;;;;;;6333950;28;20055;-64
2023/10/20 18:34:17;;;;;;;10.35;4.32;;;;;;;;;;6332062;28;20825;-64
2023/10/20 18:37:19;;;;;;;8.45;2.47;;;;;;;;;;6334871;28;20811;-64
2023/10/20 18:40:21;;;;;;;9.00;3.10;;;;;;;;;;6334747;28;20051;-64
2023/10/20 18:43:23;;;;;;;7.53;4.15;;;;;;;;;;6334325;28;20101;-65
2023/10/20 18:46:28;;;;;;;;;;;;;;;;;;6335141;28;20626;-64
2023/10/20 18:49:30;;;;;;;11.70;3.60;;;;;;;;;;6334537;28;19977;-63
2023/10/20 18:52:32;;;;;;;11.77;1.90;;;;;;;;;;6336524;28;20051;-63
2023/10/20 18:55:33;;;;;;;9.85;4.30;;;;;;;;;;6339096;28;20473;-64
2023/10/20 18:58:36;;;;;;;11.73;3.92;;;;;;;;;;6338441;28;20747;-64